Time;durP1;ratioP1;P1;durP2;ratioP2;P2;SDS_P1;SDS_P2;PMS_P1;PMS_P2;Temp;Humidity;BMP_temperature;BMP_pressure;BME280_temperature;BME280_humidity;BME280_pressure;Samples;Min_cycle;Max_cycle;Signal;HPM_P1;HPM_P2
2023/03/22 00:00:36;;;;;;;9.85;1.75;;;;;;;13.22;65.96;100947.56;5063508;28;20055;-40
2023/03/22 00:03:02;;;;;;;8.55;2.15;;;;;;;13.06;66.70;100946.56;5062449;28;20492;-43
2023/03/22 00:05:29;;;;;;;8.75;1.98;;;;;;;13.16;66.08;100951.03;5060191;28;20029;-40
2023/03/22 00:07:56;;;;;;;8.27;1.75;;;;;;;13.12;66.32;100954.50;5063800;28;20112;-39
2023/03/22 00:10:24;;;;;;;8.73;1.95;;;;;;;13.29;65.79;100947.59;5059219;28;20048;-39
2023/03/22 00:12:50;;;;;;;6.85;1.65;;;;;;;13.19;65.93;100948.41;5063185;28;20041;-39
2023/03/22 00:15:15;;;;;;;9.95;2.05;;;;;;;13.29;65.60;100944.97;5059959;28;20028;-41
2023/03/22 00:17:40;;;;;;;8.93;1.95;;;;;;;13.38;65.36;100951.97;5063712;28;20556;-44
2023/03/22 00:20:07;;;;;;;6.32;1.80;;;;;;;13.38;65.32;100939.75;5065724;28;20037;-42
2023/03/22 00:22:32;;;;;;;9.45;1.88;;;;;;;13.39;65.36;100932.78;5062452;28;20040;-41
2023/03/22 00:24:58;;;;;;;9.25;2.00;;;;;;;13.38;65.25;100942.38;5067734;28;20036;-40
2023/03/22 00:27:23;;;;;;;7.80;1.98;;;;;;;13.44;65.09;100924.94;5063099;28;20039;-40
2023/03/22 00:29:51;;;;;;;9.30;1.90;;;;;;;13.38;64.85;100931.03;5064664;28;20029;-40
2023/03/22 00:32:16;;;;;;;8.63;2.10;;;;;;;13.28;65.15;100932.75;5062084;28;20041;-40
2023/03/22 00:34:41;;;;;;;13.15;2.70;;;;;;;13.26;65.64;100920.50;5066428;28;20055;-39
2023/03/22 00:37:07;;;;;;;9.02;2.40;;;;;;;13.18;65.87;100915.25;5069025;28;20036;-38
2023/03/22 00:39:32;;;;;;;7.82;2.08;;;;;;;13.20;65.81;100916.13;5065906;28;20032;-42
2023/03/22 00:41:57;;;;;;;10.60;2.53;;;;;;;13.14;66.13;100912.63;5067385;28;20035;-41
2023/03/22 00:44:23;;;;;;;14.80;2.55;;;;;;;13.14;65.86;100902.16;5064995;28;20048;-40
2023/03/22 00:46:48;;;;;;;11.95;2.83;;;;;;;13.28;65.56;100895.22;5069369;28;20036;-41
2023/03/22 00:49:13;;;;;;;10.60;2.50;;;;;;;13.23;65.61;100891.72;5065889;28;20032;-38
2023/03/22 00:51:39;;;;;;;9.50;2.72;;;;;;;13.14;66.19;100889.06;5067909;28;20036;-43
2023/03/22 00:54:04;;;;;;;8.13;2.65;;;;;;;13.30;65.28;100885.59;5070465;28;20070;-38
2023/03/22 00:56:32;;;;;;;9.82;2.70;;;;;;;13.31;65.15;100879.50;5066412;28;20529;-40
2023/03/22 00:58:58;;;;;;;10.02;2.50;;;;;;;13.35;65.12;100876.91;5069162;28;20039;-40
2023/03/22 01:01:24;;;;;;;9.70;2.60;;;;;;;13.24;65.24;100873.38;5065471;28;20058;-42
2023/03/22 01:03:49;;;;;;;7.45;2.53;;;;;;;13.29;65.13;100882.16;5068726;28;20037;-40
2023/03/22 01:06:15;;;;;;;11.63;2.95;;;;;;;13.30;64.92;100868.16;5064393;28;20124;-42
2023/03/22 01:08:40;;;;;;;9.27;2.85;;;;;;;13.37;64.79;100862.06;5068093;28;20074;-43
2023/03/22 01:11:07;;;;;;;9.75;2.55;;;;;;;13.19;64.92;100859.41;5068792;28;20049;-39
2023/03/22 01:13:33;;;;;;;7.72;2.42;;;;;;;13.20;65.17;100850.69;5062842;28;20059;-41
2023/03/22 01:15:58;;;;;;;8.30;2.47;;;;;;;13.23;64.68;100852.47;5064834;28;20502;-39
2023/03/22 01:18:24;;;;;;;11.82;2.92;;;;;;;12.97;65.34;100841.88;5059795;28;20036;-42
2023/03/22 01:20:50;;;;;;;10.57;2.50;;;;;;;13.11;65.16;100839.31;5064036;28;20033;-39
2023/03/22 01:23:16;;;;;;;9.48;2.50;;;;;;;13.02;65.16;100837.53;5058018;28;20024;-42
2023/03/22 01:25:41;;;;;;;7.03;2.30;;;;;;;13.20;64.98;100821.91;5062544;28;20039;-39
2023/03/22 01:28:07;;;;;;;8.05;2.20;;;;;;;13.28;64.16;100812.31;5061512;28;20070;-44
2023/03/22 01:30:33;;;;;;;10.15;2.53;;;;;;;13.25;64.50;100822.78;5062856;28;20036;-41
2023/03/22 01:32:58;;;;;;;8.43;2.10;;;;;;;13.21;64.21;100817.53;5061561;28;20045;-40
2023/03/22 01:35:24;;;;;;;9.77;2.30;;;;;;;13.21;64.35;100812.31;5058990;28;20139;-39
2023/03/22 01:37:49;;;;;;;8.65;2.03;;;;;;;13.22;64.38;100806.19;5063844;28;20116;-40
2023/03/22 01:40:15;;;;;;;6.10;2.03;;;;;;;13.29;64.24;100800.97;5060712;28;20028;-41
2023/03/22 01:42:40;;;;;;;7.38;2.30;;;;;;;13.28;64.06;100791.38;5067287;28;20040;-40
2023/03/22 01:45:11;;;;;;;8.25;2.20;;;;;;;13.39;63.75;100788.75;5067356;28;20025;-44
2023/03/22 01:47:42;;;;;;;12.02;2.33;;;;;;;13.36;63.45;100789.63;5065075;28;20051;-41
2023/03/22 01:50:08;;;;;;;6.22;2.13;;;;;;;13.26;63.89;100782.63;5061543;28;20072;-42
2023/03/22 01:52:34;;;;;;;8.20;2.33;;;;;;;13.48;63.65;100786.13;5067363;28;20064;-41
2023/03/22 01:55:00;;;;;;;7.70;2.15;;;;;;;13.57;63.40;100782.66;5063078;28;20052;-45
2023/03/22 01:57:25;;;;;;;8.25;2.22;;;;;;;13.49;63.71;100781.75;5064289;28;20036;-41
2023/03/22 01:59:51;;;;;;;7.38;2.22;;;;;;;13.59;63.62;100780.91;5068769;28;20436;-39
2023/03/22 02:02:20;;;;;;;7.35;2.20;;;;;;;13.62;63.29;100771.28;5065675;28;20493;-40
2023/03/22 02:04:49;;;;;;;7.78;2.03;;;;;;;13.62;63.33;100775.66;5069118;28;20037;-43
2023/03/22 02:07:24;;;;;;;8.45;2.40;;;;;;;13.65;63.48;100767.81;5065870;28;20048;-47
2023/03/22 02:09:50;;;;;;;7.68;2.30;;;;;;;13.52;64.01;100763.44;5068570;28;20060;-40
2023/03/22 02:12:41;;;;;;;9.45;2.40;;;;;;;13.64;63.68;100764.31;5062798;28;20059;-39
2023/03/22 02:15:35;;;;;;;8.73;2.88;;;;;;;13.69;63.77;100759.06;5061253;28;20067;-39
2023/03/22 02:18:05;;;;;;;6.75;2.60;;;;;;;13.62;64.21;100752.06;5058465;28;20462;-41
2023/03/22 02:21:00;;;;;;;6.80;2.88;;;;;;;13.58;64.60;100745.09;5057770;28;20040;-42
2023/03/22 02:23:44;;;;;;;7.32;2.95;;;;;;;13.41;65.35;100739.88;5057328;28;20097;-40
2023/03/22 02:26:31;;;;;;;11.10;3.43;;;;;;;13.63;64.68;100740.72;5057991;28;20029;-40
2023/03/22 02:29:18;;;;;;;8.07;3.33;;;;;;;13.56;64.88;100745.09;5060078;28;20041;-41
2023/03/22 02:32:20;;;;;;;8.70;3.28;;;;;;;13.55;65.18;100740.72;5057292;28;20041;-41
2023/03/22 02:35:04;;;;;;;6.43;3.30;;;;;;;13.61;65.01;100743.34;5056564;28;20040;-42
2023/03/22 02:37:51;;;;;;;12.43;3.30;;;;;;;13.53;64.96;100739.00;5057664;28;20498;-41
2023/03/22 02:40:32;;;;;;;9.48;3.45;;;;;;;13.17;66.86;100737.25;5057107;28;20716;-41
2023/03/22 02:43:08;;;;;;;11.05;3.83;;;;;;;13.47;66.27;100734.66;5062382;28;20037;-37
2023/03/22 02:45:40;;;;;;;9.15;4.03;;;;;;;13.25;66.62;100730.25;5061195;28;20054;-41
2023/03/22 02:48:25;;;;;;;10.20;4.20;;;;;;;13.34;67.26;100730.28;5062536;28;20048;-39
2023/03/22 02:50:55;;;;;;;9.00;4.20;;;;;;;13.34;67.09;100725.03;5057810;28;20431;-39
2023/03/22 02:53:29;;;;;;;9.50;4.40;;;;;;;13.28;67.71;100728.53;5056520;28;20033;-40
2023/03/22 02:56:00;;;;;;;;;;;;;;;13.40;67.12;100722.44;5061856;28;20483;-39
2023/03/22 02:58:33;;;;;;;9.70;4.63;;;;;;;13.60;66.56;100712.78;5060326;28;19919;-42
2023/03/22 03:01:05;;;;;;;8.38;4.43;;;;;;;13.48;66.86;100715.41;5065166;28;20041;-40
2023/03/22 03:03:32;;;;;;;10.50;5.10;;;;;;;13.33;67.54;100713.69;5060243;28;20024;-40
2023/03/22 03:06:03;;;;;;;10.50;4.32;;;;;;;13.39;67.47;100716.31;5067614;28;20428;-41
2023/03/22 03:08:29;;;;;;;11.40;4.60;;;;;;;13.60;66.62;100711.94;5065141;28;20074;-40
2023/03/22 03:10:55;;;;;;;11.55;4.82;;;;;;;13.69;65.72;100709.28;5067170;28;20055;-42
2023/03/22 03:13:20;;;;;;;11.45;4.70;;;;;;;13.67;66.11;100700.53;5060194;28;20044;-40
2023/03/22 03:15:52;;;;;;;10.63;4.53;;;;;;;13.62;66.44;100704.94;5064193;28;20051;-39
2023/03/22 03:18:33;;;;;;;12.15;4.80;;;;;;;13.33;67.73;100702.34;5064229;28;20127;-39
2023/03/22 03:21:28;;;;;;;13.52;5.05;;;;;;;13.40;67.26;100693.63;5060669;28;20056;-38
2023/03/22 03:24:17;;;;;;;10.65;4.60;;;;;;;13.42;67.48;100704.94;5019908;28;20119;-39
2023/03/22 03:27:06;;;;;;;11.85;4.88;;;;;;;13.59;66.69;100703.19;5061491;28;20098;-39
2023/03/22 03:29:56;;;;;;;14.80;5.18;;;;;;;13.44;66.92;100692.72;5060538;28;20449;-41
2023/03/22 03:32:30;;;;;;;9.88;4.90;;;;;;;13.49;66.71;100695.34;5060848;28;20040;-40
2023/03/22 03:35:06;;;;;;;10.93;5.10;;;;;;;13.15;68.08;100698.00;5066042;28;20036;-41
2023/03/22 03:37:40;;;;;;;12.48;4.55;;;;;;;13.65;66.48;100694.47;5063824;28;20483;-39
2023/03/22 03:40:10;;;;;;;15.45;5.57;;;;;;;13.36;67.51;100691.84;5064114;28;20043;-39
2023/03/22 03:42:39;;;;;;;11.60;5.13;;;;;;;13.29;67.42;100683.16;5060687;28;20048;-41
2023/03/22 03:45:07;;;;;;;10.30;5.00;;;;;;;13.55;66.86;100688.34;5063861;28;20029;-44
2023/03/22 03:47:33;;;;;;;11.52;4.97;;;;;;;13.46;66.63;100680.53;5060329;28;20036;-40
2023/03/22 03:49:59;;;;;;;10.13;5.15;;;;;;;13.59;66.77;100694.47;5063999;28;20048;-47
2023/03/22 03:52:25;;;;;;;12.45;5.93;;;;;;;13.73;66.32;100687.44;5060567;28;20032;-41
2023/03/22 03:54:50;;;;;;;13.23;5.70;;;;;;;13.70;66.47;100688.34;5064254;28;20040;-39
2023/03/22 03:57:16;;;;;;;12.90;5.60;;;;;;;13.34;68.04;100689.25;5059668;28;20047;-39
2023/03/22 03:59:41;;;;;;;11.15;5.53;;;;;;;13.55;66.97;100685.72;5064751;28;20070;-44
2023/03/22 04:02:06;;;;;;;10.05;5.95;;;;;;;13.61;66.44;100690.06;5064312;28;20033;-39
2023/03/22 04:04:33;;;;;;;12.30;6.05;;;;;;;13.62;67.17;100679.59;5059868;28;20490;-41
2023/03/22 04:07:00;;;;;;;11.18;6.00;;;;;;;13.43;67.43;100679.63;5064620;28;20032;-39
2023/03/22 04:09:28;;;;;;;12.18;6.13;;;;;;;13.66;66.94;100683.94;5060000;28;20168;-39
2023/03/22 04:11:54;;;;;;;12.52;5.82;;;;;;;13.77;66.26;100676.09;5063127;28;20127;-38
2023/03/22 04:14:20;;;;;;;11.93;5.88;;;;;;;13.53;67.50;100673.53;5058285;28;20081;-43
2023/03/22 04:16:46;;;;;;;10.32;6.45;;;;;;;13.73;66.27;100669.09;5065726;28;20036;-43
2023/03/22 04:19:12;;;;;;;11.90;6.30;;;;;;;13.64;67.20;100669.13;5061818;28;20029;-41
2023/03/22 04:21:37;;;;;;;12.13;5.85;;;;;;;13.71;66.79;100666.50;5066534;28;20067;-40
2023/03/22 04:24:03;;;;;;;13.50;5.90;;;;;;;13.76;66.11;100667.34;5066521;28;20044;-44
2023/03/22 04:26:28;;;;;;;11.63;5.70;;;;;;;13.31;68.50;100664.81;5062827;28;20033;-41
2023/03/22 04:28:53;;;;;;;12.60;5.85;;;;;;;13.77;66.71;100665.59;5066569;28;20036;-41
2023/03/22 04:31:19;;;;;;;11.30;5.72;;;;;;;13.73;66.03;100662.09;5059752;28;20078;-40
2023/03/22 04:33:45;;;;;;;9.48;5.45;;;;;;;13.82;65.91;100659.47;5064511;28;20052;-41
2023/03/22 04:36:14;;;;;;;13.48;5.80;;;;;;;13.49;67.00;100656.94;5061521;28;20033;-41
2023/03/22 04:38:41;;;;;;;11.23;5.47;;;;;;;13.49;67.06;100653.44;5066088;28;20040;-40
2023/03/22 04:41:07;;;;;;;12.38;5.38;;;;;;;13.34;66.64;100650.00;5062609;28;20028;-44
2023/03/22 04:43:33;;;;;;;13.00;5.30;;;;;;;13.64;66.82;100650.78;5066177;28;20081;-40
2023/03/22 04:46:00;;;;;;;9.73;4.97;;;;;;;13.37;66.37;100655.22;5062718;28;20033;-39
2023/03/22 04:48:26;;;;;;;13.13;5.30;;;;;;;13.36;66.71;100655.19;5061755;28;20070;-39
2023/03/22 04:50:52;;;;;;;12.57;4.80;;;;;;;13.48;66.64;100657.78;5065405;28;20040;-42
2023/03/22 04:53:17;;;;;;;11.70;4.70;;;;;;;13.61;65.80;100645.56;5060360;28;20040;-40
2023/03/22 04:55:44;;;;;;;14.88;4.70;;;;;;;13.60;65.75;100649.06;5063622;28;20411;-41
2023/03/22 04:58:09;;;;;;;11.32;4.78;;;;;;;13.62;65.51;100623.72;5059251;28;20029;-39
2023/03/22 05:00:36;;;;;;;13.50;4.80;;;;;;;13.53;66.07;100642.97;5062682;28;20033;-40
2023/03/22 05:03:02;;;;;;;11.60;4.32;;;;;;;13.69;65.32;100636.81;5079334;22;21030;-41
2023/03/22 05:05:28;;;;;;;10.65;4.18;;;;;;;13.41;65.93;100643.00;5078836;28;20043;-41
2023/03/22 05:07:55;;;;;;;11.60;4.10;;;;;;;13.64;65.27;100628.09;5081986;28;20517;-42
2023/03/22 05:10:20;;;;;;;9.77;3.65;;;;;;;13.34;66.14;100633.41;5077828;28;20537;-42
2023/03/22 05:12:46;;;;;;;10.43;3.70;;;;;;;13.26;65.83;100629.91;5081655;28;20127;-43
2023/03/22 05:15:11;;;;;;;7.80;3.53;;;;;;;13.65;64.82;100627.22;5098616;27;20028;-42
2023/03/22 05:17:36;;;;;;;10.80;3.45;;;;;;;13.52;65.37;100629.88;5102994;27;20400;-44
2023/03/22 05:20:08;;;;;;;9.20;3.08;;;;;;;13.90;63.94;100630.63;5101256;28;20052;-41
2023/03/22 05:22:36;;;;;;;9.18;3.40;;;;;;;13.73;64.39;100624.56;5097585;27;20027;-42
2023/03/22 05:25:02;;;;;;;8.23;3.10;;;;;;;13.34;65.02;100629.03;5101259;28;20035;-40
2023/03/22 05:27:33;;;;;;;10.95;3.17;;;;;;;13.52;64.62;100620.28;5098405;27;20062;-45
2023/03/22 05:30:00;;;;;;;11.10;3.40;;;;;;;13.34;65.12;100615.94;5103041;28;20036;-42
2023/03/22 05:32:28;;;;;;;10.35;2.92;;;;;;;13.51;64.09;100620.28;5098447;28;21216;-41
2023/03/22 05:34:54;;;;;;;10.73;3.08;;;;;;;13.59;64.23;100608.03;5103548;28;20080;-41
2023/03/22 05:37:19;;;;;;;10.15;3.00;;;;;;;13.68;63.79;100606.25;5099735;27;20035;-44
2023/03/22 05:39:45;;;;;;;6.70;2.30;;;;;;;13.65;63.74;100602.78;5103919;28;20032;-43
2023/03/22 05:42:10;;;;;;;7.88;2.60;;;;;;;13.66;63.42;100605.38;5099213;28;20116;-41
2023/03/22 05:44:36;;;;;;;7.63;2.53;;;;;;;13.49;64.30;100594.06;5103197;28;20100;-44
2023/03/22 05:47:01;;;;;;;8.95;2.40;;;;;;;13.39;64.51;100602.84;5106455;28;20455;-41
2023/03/22 05:49:26;;;;;;;10.75;2.92;;;;;;;13.50;63.76;100608.91;5101586;27;20114;-40
2023/03/22 05:51:52;;;;;;;7.35;2.30;;;;;;;13.62;63.34;100598.41;5105566;28;20040;-40
2023/03/22 05:54:17;;;;;;;9.80;2.53;;;;;;;13.76;62.99;100599.22;5103515;28;20031;-41
2023/03/22 05:56:43;;;;;;;5.35;1.92;;;;;;;13.40;63.72;100604.59;5107583;28;20027;-44
2023/03/22 05:59:08;;;;;;;9.02;2.47;;;;;;;13.26;64.37;100608.97;5102719;28;20416;-41
2023/03/22 06:01:33;;;;;;;10.30;2.35;;;;;;;13.54;63.55;100604.56;5105069;28;20023;-41
2023/03/22 06:03:59;;;;;;;11.15;2.28;;;;;;;13.55;63.57;100601.03;5103208;28;20047;-43
2023/03/22 06:06:26;;;;;;;8.60;2.28;;;;;;;13.47;63.87;100610.69;5097635;28;20172;-42
2023/03/22 06:08:52;;;;;;;9.02;2.20;;;;;;;13.53;63.40;100606.31;5101149;28;20043;-42
2023/03/22 06:11:18;;;;;;;7.68;2.08;;;;;;;13.78;62.92;100594.84;5097063;28;20032;-42
2023/03/22 06:13:43;;;;;;;5.45;1.88;;;;;;;14.12;61.89;100600.81;5101137;28;20043;-43
2023/03/22 06:16:09;;;;;;;10.10;1.95;;;;;;;13.74;63.15;100600.97;5098326;28;20052;-41
2023/03/22 06:18:34;;;;;;;9.00;2.28;;;;;;;13.68;63.29;100614.09;5101932;28;20038;-42
2023/03/22 06:21:00;;;;;;;8.88;1.92;;;;;;;13.87;62.73;100606.16;5102247;28;20031;-43
2023/03/22 06:23:25;;;;;;;7.55;1.90;;;;;;;14.07;62.09;100593.84;5097454;28;20032;-42
2023/03/22 06:25:51;;;;;;;8.80;2.13;;;;;;;13.49;63.28;100595.81;5105032;28;20036;-42
2023/03/22 06:28:16;;;;;;;8.60;2.38;;;;;;;13.74;63.14;100603.59;5100432;28;20051;-45
2023/03/22 06:30:41;;;;;;;10.05;2.17;;;;;;;13.67;63.65;100598.38;5104626;28;20032;-42
2023/03/22 06:33:07;;;;;;;7.50;2.15;;;;;;;13.95;62.67;100597.41;5109276;27;20031;-42
2023/03/22 06:35:32;;;;;;;11.40;2.22;;;;;;;13.63;63.81;100600.16;5105897;28;20096;-44
2023/03/22 06:37:58;;;;;;;11.80;2.20;;;;;;;13.61;63.73;100598.41;5106555;27;20039;-44
2023/03/22 06:40:24;;;;;;;9.35;2.20;;;;;;;13.76;63.36;100588.75;5101256;27;20493;-41
2023/03/22 06:42:49;;;;;;;8.38;2.25;;;;;;;13.77;62.74;100587.00;5104386;28;20409;-41
2023/03/22 06:45:15;;;;;;;7.53;1.98;;;;;;;13.73;63.53;100594.00;5101319;27;20028;-41
2023/03/22 06:47:41;;;;;;;11.70;2.53;;;;;;;13.65;63.74;100590.56;5105330;27;20446;-44
2023/03/22 06:50:07;;;;;;;9.95;2.20;;;;;;;13.54;63.99;100596.69;5102191;27;20034;-43
2023/03/22 06:52:32;;;;;;;11.55;2.10;;;;;;;14.07;62.95;100593.84;5111353;28;20036;-39
2023/03/22 06:54:58;;;;;;;9.98;1.95;;;;;;;13.85;63.66;100594.81;5111420;28;20391;-42
2023/03/22 06:57:23;;;;;;;9.63;2.22;;;;;;;13.97;62.81;100592.13;5101105;27;20401;-43
2023/03/22 06:59:49;;;;;;;7.50;2.13;;;;;;;13.98;63.04;100588.63;5104586;28;20031;-43
2023/03/22 07:02:14;;;;;;;10.23;2.40;;;;;;;13.89;63.23;100596.56;5101395;28;20165;-41
2023/03/22 07:04:39;;;;;;;7.70;2.20;;;;;;;13.74;63.37;100587.00;5104553;27;20035;-44
2023/03/22 07:07:05;;;;;;;9.82;2.72;;;;;;;14.31;61.61;100585.84;5104579;27;20036;-41
2023/03/22 07:09:30;;;;;;;11.27;2.35;;;;;;;13.89;63.18;100586.94;5100535;28;20023;-40
2023/03/22 07:11:55;;;;;;;9.98;2.20;;;;;;;13.81;63.22;100586.97;5103952;27;20500;-43
2023/03/22 07:14:21;;;;;;;8.18;2.22;;;;;;;14.42;61.79;100591.91;5100089;27;20131;-41
2023/03/22 07:16:46;;;;;;;11.85;2.50;;;;;;;14.00;62.29;100585.16;5105076;28;20081;-41
2023/03/22 07:19:11;;;;;;;9.98;2.78;;;;;;;13.97;63.24;100586.88;5102025;27;20028;-42
2023/03/22 07:21:37;;;;;;;8.75;2.40;;;;;;;13.93;62.95;100587.78;5105069;28;20497;-42
2023/03/22 07:24:02;;;;;;;13.57;2.85;;;;;;;13.83;63.38;100581.75;5104810;28;20118;-42
2023/03/22 07:26:29;;;;;;;13.02;2.60;;;;;;;14.27;62.14;100589.38;5100595;27;20028;-45
2023/03/22 07:28:55;;;;;;;13.90;2.83;;;;;;;14.29;62.08;100594.59;5104475;28;20035;-46
2023/03/22 07:31:20;;;;;;;9.63;2.47;;;;;;;14.12;62.20;100589.44;5100396;27;20035;-42
2023/03/22 07:33:47;;;;;;;9.02;2.40;;;;;;;13.53;63.83;100585.34;5104897;27;20046;-45
2023/03/22 07:36:12;;;;;;;11.88;3.08;;;;;;;14.11;62.57;100601.69;5100450;27;20027;-41
2023/03/22 07:38:38;;;;;;;9.27;2.67;;;;;;;14.04;62.42;100593.84;5104196;27;20110;-41
2023/03/22 07:41:04;;;;;;;10.02;2.45;;;;;;;14.12;62.13;100592.06;5104140;27;20028;-41
2023/03/22 07:43:29;;;;;;;9.23;2.40;;;;;;;14.37;62.33;100590.16;5097647;28;20046;-43
2023/03/22 07:45:55;;;;;;;8.27;2.60;;;;;;;13.98;62.92;100601.75;5104115;28;20027;-40
2023/03/22 07:48:22;;;;;;;10.80;2.80;;;;;;;13.96;63.90;100590.41;5102209;27;20031;-42
2023/03/22 07:50:47;;;;;;;9.77;2.53;;;;;;;13.71;63.88;100601.00;5103463;28;20036;-42
2023/03/22 07:53:13;;;;;;;7.68;2.53;;;;;;;13.90;64.04;100598.31;5100898;28;20085;-41
2023/03/22 07:55:41;;;;;;;11.27;2.70;;;;;;;14.50;62.19;100592.75;5104346;28;20319;-41
2023/03/22 07:58:08;;;;;;;8.40;2.50;;;;;;;14.20;62.88;100592.91;5104551;27;20078;-41
2023/03/22 08:00:33;;;;;;;8.95;2.20;;;;;;;14.61;62.47;100596.16;5099851;27;20036;-42
2023/03/22 08:03:00;;;;;;;8.88;2.20;;;;;;;14.14;63.94;100588.56;5106121;27;20039;-44
2023/03/22 08:05:25;;;;;;;12.35;2.53;;;;;;;14.28;63.94;100590.22;5102669;28;20032;-41
2023/03/22 08:07:51;;;;;;;8.82;2.40;;;;;;;14.14;63.99;100596.44;5104638;28;20088;-42
2023/03/22 08:10:16;;;;;;;9.32;2.25;;;;;;;14.05;64.81;100595.59;5104943;27;20124;-41
2023/03/22 08:12:42;;;;;;;8.68;2.17;;;;;;;13.66;66.19;100599.28;5105361;27;20035;-42
2023/03/22 08:15:09;;;;;;;9.43;2.28;;;;;;;13.66;66.16;100609.75;5104299;27;20027;-42
2023/03/22 08:17:34;;;;;;;11.23;2.40;;;;;;;13.65;66.79;100608.88;5104118;27;20027;-41
2023/03/22 08:20:01;;;;;;;8.50;2.30;;;;;;;13.28;68.34;100623.81;5108948;27;20035;-41
2023/03/22 08:22:28;;;;;;;10.23;2.67;;;;;;;13.27;68.99;100616.84;5104496;27;22532;-40
2023/03/22 08:24:54;;;;;;;13.88;2.72;;;;;;;13.35;68.85;100598.50;5108654;28;20081;-42
2023/03/22 08:27:20;;;;;;;8.93;2.40;;;;;;;12.81;70.40;100605.47;5104778;28;20027;-43
2023/03/22 08:29:47;;;;;;;9.70;2.50;;;;;;;13.17;70.45;100606.38;5109679;27;20068;-45
2023/03/22 08:32:14;;;;;;;8.98;2.45;;;;;;;13.56;69.07;100595.81;5105952;27;20055;-40
2023/03/22 08:34:40;;;;;;;6.72;2.20;;;;;;;13.56;69.19;100585.31;5107957;28;20456;-41
2023/03/22 08:37:07;;;;;;;7.78;2.30;;;;;;;13.32;69.16;100586.28;5091667;28;20031;-42
2023/03/22 08:39:33;;;;;;;10.10;2.10;;;;;;;13.57;69.07;100592.31;5084564;28;20040;-44
2023/03/22 08:41:59;;;;;;;8.88;2.50;;;;;;;13.38;69.41;100599.34;5088297;28;20020;-41
2023/03/22 08:44:24;;;;;;;6.68;2.40;;;;;;;13.12;70.27;100593.28;5084511;28;20028;-43
2023/03/22 08:46:50;;;;;;;9.68;2.50;;;;;;;13.38;69.54;100595.84;5088608;28;20035;-44
2023/03/22 08:49:16;;;;;;;11.00;2.72;;;;;;;13.71;68.61;100598.38;5084568;28;20036;-43
2023/03/22 08:51:41;;;;;;;10.55;2.50;;;;;;;13.54;68.87;100588.84;5086940;28;20028;-43
2023/03/22 08:54:07;;;;;;;12.07;2.65;;;;;;;13.32;70.07;100588.00;5085834;28;20300;-44
2023/03/22 08:56:36;;;;;;;9.05;2.72;;;;;;;13.25;69.96;100602.00;5083215;28;20042;-42
2023/03/22 08:59:03;;;;;;;9.90;2.55;;;;;;;13.13;70.78;100595.03;5087945;28;20480;-40
2023/03/22 09:01:29;;;;;;;8.75;2.60;;;;;;;13.67;69.79;100582.66;5084792;28;20031;-42
2023/03/22 09:03:55;;;;;;;11.05;2.85;;;;;;;13.40;70.26;100581.91;5088537;28;20048;-43
2023/03/22 09:06:20;;;;;;;9.68;2.60;;;;;;;13.37;70.41;100579.28;5080723;28;20114;-42
2023/03/22 09:08:46;;;;;;;11.77;3.20;;;;;;;13.63;69.85;100596.66;5083968;28;20035;-41
2023/03/22 09:11:12;;;;;;;12.73;3.42;;;;;;;13.34;70.27;100583.66;5082658;28;20440;-43
2023/03/22 09:13:37;;;;;;;8.95;2.85;;;;;;;13.16;70.38;100591.56;5084093;28;20122;-45
2023/03/22 09:16:05;;;;;;;7.38;2.33;;;;;;;13.37;70.22;100592.38;5085002;28;20602;-41
2023/03/22 09:18:31;;;;;;;10.73;2.88;;;;;;;13.76;69.32;100590.50;5080710;28;20028;-44
2023/03/22 09:20:56;;;;;;;6.32;2.20;;;;;;;13.50;70.46;100590.59;5082285;28;20046;-40
2023/03/22 09:23:22;;;;;;;13.20;2.85;;;;;;;13.65;69.69;100597.53;5084443;28;20028;-42
2023/03/22 09:25:47;;;;;;;8.80;2.30;;;;;;;13.25;70.95;100589.78;5088252;28;20088;-40
2023/03/22 09:28:13;;;;;;;8.63;2.55;;;;;;;12.86;71.92;100595.03;5084989;28;20035;-41
2023/03/22 09:30:39;;;;;;;7.35;2.60;;;;;;;13.28;71.77;100583.69;5088712;28;20035;-40
2023/03/22 09:33:05;;;;;;;10.15;2.53;;;;;;;13.30;71.98;100588.00;5088253;28;20038;-41
2023/03/22 09:35:31;;;;;;;9.82;2.90;;;;;;;13.47;71.32;100584.50;5083925;28;20031;-42
2023/03/22 09:37:58;;;;;;;8.27;2.80;;;;;;;13.69;70.18;100581.78;5087331;28;20040;-41
2023/03/22 09:40:28;;;;;;;10.23;3.30;;;;;;;13.72;70.51;100597.47;5083026;28;20032;-40
2023/03/22 09:42:56;;;;;;;9.65;3.35;;;;;;;13.46;71.01;100586.25;5088007;28;20032;-40
2023/03/22 09:45:36;;;;;;;12.02;3.17;;;;;;;13.46;71.06;100594.09;5081483;28;20031;-40
2023/03/22 09:48:03;;;;;;;8.65;2.83;;;;;;;13.82;70.24;100595.72;5085535;28;20031;-41
2023/03/22 09:50:31;;;;;;;9.88;2.78;;;;;;;13.39;71.26;100592.38;5078239;28;20028;-39
2023/03/22 09:52:58;;;;;;;7.60;2.63;;;;;;;13.68;70.48;100605.38;5082128;28;20047;-40
2023/03/22 09:55:38;;;;;;;9.75;3.03;;;;;;;13.32;71.83;100598.50;5078887;28;20089;-42
2023/03/22 09:58:09;;;;;;;12.65;3.13;;;;;;;12.98;73.01;100600.25;5082992;28;20048;-40
2023/03/22 10:00:46;;;;;;;7.22;2.72;;;;;;;13.56;71.44;100593.19;5078524;28;20046;-39
2023/03/22 10:03:49;;;;;;;8.88;3.25;;;;;;;13.72;70.56;100602.72;5080476;28;20100;-44
2023/03/22 10:06:19;;;;;;;10.65;3.10;;;;;;;13.39;71.56;100603.72;5080415;28;20035;-41
2023/03/22 10:09:00;;;;;;;10.23;3.00;;;;;;;13.45;71.30;100602.81;5084134;28;20036;-41
2023/03/22 10:11:34;;;;;;;8.90;3.40;;;;;;;13.59;71.46;100598.44;5083927;28;20028;-44
2023/03/22 10:14:12;;;;;;;;;;;;;;;13.70;70.58;100595.75;5088626;28;20114;-42
2023/03/22 10:16:38;;;;;;;7.68;3.08;;;;;;;13.79;70.52;100596.59;5085689;28;19920;-42
2023/03/22 10:19:18;;;;;;;9.15;3.30;;;;;;;13.95;70.53;100575.56;5088839;28;20089;-41
2023/03/22 10:21:46;;;;;;;12.40;3.38;;;;;;;13.80;70.74;100581.75;5085021;28;20062;-41
2023/03/22 10:24:18;;;;;;;8.57;2.92;;;;;;;13.32;71.50;100573.19;5084706;28;20092;-40
2023/03/22 10:26:46;;;;;;;12.10;3.10;;;;;;;13.89;70.36;100571.22;5089093;28;20091;-40
2023/03/22 10:29:17;;;;;;;12.43;3.28;;;;;;;14.09;69.83;100563.22;5085257;28;20028;-39
2023/03/22 10:31:44;;;;;;;9.27;2.63;;;;;;;14.16;68.69;100552.72;5089868;28;20035;-40
2023/03/22 10:34:35;;;;;;;7.20;2.85;;;;;;;13.53;71.32;100567.03;5089443;28;20028;-44
2023/03/22 10:37:04;;;;;;;8.75;2.78;;;;;;;14.13;70.47;100560.59;5076380;28;20404;-39
2023/03/22 10:39:36;;;;;;;13.57;3.20;;;;;;;13.93;70.60;100561.59;5080455;28;20034;-38
2023/03/22 10:42:07;;;;;;;8.52;2.80;;;;;;;14.13;70.54;100572.84;5086259;28;20059;-37
2023/03/22 10:44:42;;;;;;;7.05;2.72;;;;;;;14.09;70.32;100568.47;5084576;28;20040;-41
2023/03/22 10:47:10;;;;;;;6.32;2.90;;;;;;;13.85;71.19;100572.09;5085537;28;20521;-38
2023/03/22 10:49:43;;;;;;;8.35;2.90;;;;;;;13.91;70.91;100548.47;5083438;28;20067;-40
2023/03/22 10:52:38;;;;;;;8.00;3.00;;;;;;;13.45;71.41;100553.06;5081551;28;20040;-38
2023/03/22 10:55:07;;;;;;;6.95;2.70;;;;;;;13.94;70.57;100539.75;5085102;28;20040;-41
2023/03/22 10:57:32;;;;;;;9.48;3.03;;;;;;;13.77;70.65;100529.38;5081313;28;20308;-39
2023/03/22 10:59:58;;;;;;;7.45;2.92;;;;;;;14.16;69.95;100543.97;5085910;28;20032;-39
2023/03/22 11:02:29;;;;;;;5.90;2.50;;;;;;;14.81;67.90;100551.38;5085327;28;20032;-39
2023/03/22 11:05:25;;;;;;;6.00;2.72;;;;;;;14.69;67.42;100553.25;5087963;28;20040;-39
2023/03/22 11:07:51;;;;;;;9.48;2.92;;;;;;;14.50;68.22;100571.75;5073655;28;20040;-41
2023/03/22 11:10:26;;;;;;;8.30;2.88;;;;;;;14.26;68.32;100573.63;5080736;28;20059;-38
2023/03/22 11:12:55;;;;;;;8.23;2.90;;;;;;;14.48;67.63;100581.38;5085438;28;20119;-41
2023/03/22 11:15:31;;;;;;;8.05;2.85;;;;;;;13.92;69.39;100614.88;5082142;28;20121;-40
2023/03/22 11:18:06;;;;;;;8.20;2.90;;;;;;;14.24;69.20;100589.38;5086815;28;20115;-41
2023/03/22 11:20:33;;;;;;;9.10;3.15;;;;;;;14.27;68.75;100597.25;5084650;28;20032;-41
2023/03/22 11:23:02;;;;;;;8.02;3.30;;;;;;;14.21;68.86;100605.09;5088646;28;20028;-40
2023/03/22 11:25:34;;;;;;;9.95;3.10;;;;;;;14.23;68.77;100603.34;5085135;28;20046;-40
2023/03/22 11:28:18;;;;;;;6.75;2.70;;;;;;;13.91;69.10;100600.91;5087635;28;20032;-40